MOL Courage — C6WX5 — position and weather

sailwx.info

Track history (hours):
 
Tides and Currents Weather Stations Pressure Air Temp Water Temp Dewpoint Dewpoint Depression Visibility Wind Speed Wind Dir Waves Ship Positions

MOL Courage

Last reported at 2014-Oct-01 02:26 UTC. Time now 2014-Oct-01 04:06 UTC.
Position N 33°46' W 118°16'.

Length 316 m; draft 12.5 m.

Type: Ship (hazmat cat A). MMSI: 311001700.

Date/timePositionNaut miles runAvg speedWind from/ knotsBaromVisibWave heightAir tempDewpointWater temp
2014-Oct-01 02:26N 33°46' W 118°16'0 0.0
2014-Sep-30 22:32N 33°46' W 118°16'0 0.0
2014-Sep-30 19:26N 33°46' W 118°16'0 0.0
2014-Sep-30 13:29N 33°46' W 118°16'0 0.0
2014-Sep-30 12:32N 33°46' W 118°16'0 0.0
2014-Sep-30 11:26N 33°46' W 118°16'0 0.0
2014-Sep-30 10:20N 33°46' W 118°16'0 0.0
2014-Sep-30 08:26N 33°46' W 118°16'0 0.0
2014-Sep-29 22:32N 33°46' W 118°16'  
2014-Sep-26 23:10N 33°46' W 118°16'9 3.6
2014-Sep-26 20:33N 33°41' W 118°07'0 0.0
2014-Sep-26 17:08N 33°41' W 118°07'0 0.0
2014-Sep-26 16:32N 33°41' W 118°07'0 0.0
2014-Sep-26 15:32N 33°41' W 118°07'0 0.0
2014-Sep-26 14:32N 33°41' W 118°07'0 0.1
2014-Sep-26 13:32N 33°41' W 118°07'0 0.0
2014-Sep-26 11:26N 33°41' W 118°07'0 0.1
2014-Sep-26 10:32N 33°41' W 118°07'0 0.1
2014-Sep-26 09:32N 33°41' W 118°07'0 0.1
2014-Sep-26 08:32N 33°41' W 118°07'0 0.0
2014-Sep-26 06:23N 33°41' W 118°07'0 0.1
2014-Sep-26 05:32N 33°41' W 118°07'0 0.0
2014-Sep-26 04:32N 33°41' W 118°07'0 0.1
2014-Sep-26 03:32N 33°41' W 118°07'0 0.0
2014-Sep-26 02:14N 33°41' W 118°07'0 0.0
2014-Sep-26 01:32N 33°41' W 118°07'0 0.0
2014-Sep-26 00:32N 33°41' W 118°07'0 0.0
2014-Sep-25 23:17N 33°41' W 118°07'0 0.0
2014-Sep-25 22:23N 33°41' W 118°07'0 0.0
2014-Sep-25 21:32N 33°41' W 118°07'0 0.0
2014-Sep-25 20:32N 33°41' W 118°07'0 0.0
2014-Sep-25 19:32N 33°41' W 118°07'0 0.0
2014-Sep-25 18:29N 33°41' W 118°07'0 0.0
2014-Sep-25 16:32N 33°41' W 118°07'0 0.1
2014-Sep-25 15:32N 33°41' W 118°07'0 0.1
2014-Sep-25 14:32N 33°41' W 118°07'0 0.0
2014-Sep-25 13:32N 33°41' W 118°07'0 0.1
2014-Sep-25 12:32N 33°41' W 118°07'0 0.0
2014-Sep-25 11:32N 33°41' W 118°07'0 0.0
2014-Sep-25 10:32N 33°41' W 118°07'0 0.1
2014-Sep-25 09:32N 33°41' W 118°07'0 0.1
2014-Sep-25 08:32N 33°41' W 118°07'0 0.0
2014-Sep-25 07:32N 33°41' W 118°07'0 0.0
2014-Sep-25 06:32N 33°41' W 118°07'0 0.1
2014-Sep-25 05:08N 33°41' W 118°07'0 0.1
2014-Sep-25 04:26N 33°41' W 118°07'0 0.1
2014-Sep-25 03:23N 33°41' W 118°07'0 0.0
2014-Sep-25 02:08N 33°41' W 118°07'0 0.0
2014-Sep-25 01:32N 33°41' W 118°07'0 0.0
2014-Sep-25 00:29N 33°41' W 118°07'0 0.0
2014-Sep-24 23:32N 33°41' W 118°07'0 0.0
2014-Sep-24 22:32N 33°41' W 118°07'2 1.9
2014-Sep-24 21:33N 33°39' W 118°08'10 9.9
2014-Sep-24 20:33N 33°35' W 118°18'1111.5
2014-Sep-24 19:33N 33°40' W 118°31'1111.4
2014-Sep-24 18:33N 33°46' W 118°43'2211.2
2014-Sep-24 16:33N 33°57' W 119°06'1111.4
2014-Sep-24 15:33N 34°03' W 119°18'1211.2
2014-Sep-24 14:31N 34°06' W 119°32'1111.2
2014-Sep-24 13:33N 34°09' W 119°44'1211.9
2014-Sep-24 12:33N 34°12' W 119°58'1211.8
2014-Sep-24 11:33N 34°15' W 120°12'1611.9
2014-Sep-24 10:14N 34°19' W 120°30'77 4.0
2014-Sep-23 15:07N 34°58' W 121°52'1019.0
2014-Sep-23 14:34N 35°03' W 122°02'1713.2
2014-Sep-23 13:16N 35°13' W 122°19'912.7
2014-Sep-23 12:33N 35°18' W 122°28'1212.0
2014-Sep-23 11:33N 35°25' W 122°41'1211.7
2014-Sep-23 10:33N 35°32' W 122°52'1211.8
2014-Sep-23 09:33N 35°38' W 123°05'1212.2
2014-Sep-23 08:33N 35°44' W 123°18'1212.1
2014-Sep-23 07:33N 35°50' W 123°30'1212.3
2014-Sep-23 06:33N 35°57' W 123°43'1512.6
2014-Sep-23 05:20N 36°05' W 123°60'  
Track history (hours):
 
Tides and Currents Weather Stations Pressure Air Temp Water Temp Dewpoint Dewpoint Depression Visibility Wind Speed Wind Dir Waves Ship Positions

MOL Courage

Last reported at 2014-Oct-01 02:26 UTC. Time now 2014-Oct-01 04:06 UTC.
Position N 33°46' W 118°16'.

Length 316 m; draft 12.5 m.

Type: Ship (hazmat cat A). MMSI: 311001700.

Date/timePositionNaut miles runAvg speedWind from/ knotsBaromVisibWave heightAir tempDewpointWater temp
2014-Oct-01 02:26N 33°46' W 118°16'0 0.0
2014-Sep-30 22:32N 33°46' W 118°16'0 0.0
2014-Sep-30 19:26N 33°46' W 118°16'0 0.0
2014-Sep-30 13:29N 33°46' W 118°16'0 0.0
2014-Sep-30 12:32N 33°46' W 118°16'0 0.0
2014-Sep-30 11:26N 33°46' W 118°16'0 0.0
2014-Sep-30 10:20N 33°46' W 118°16'0 0.0
2014-Sep-30 08:26N 33°46' W 118°16'0 0.0
2014-Sep-29 22:32N 33°46' W 118°16'  
2014-Sep-26 23:10N 33°46' W 118°16'9 3.6
2014-Sep-26 20:33N 33°41' W 118°07'0 0.0
2014-Sep-26 17:08N 33°41' W 118°07'0 0.0
2014-Sep-26 16:32N 33°41' W 118°07'0 0.0
2014-Sep-26 15:32N 33°41' W 118°07'0 0.0
2014-Sep-26 14:32N 33°41' W 118°07'0 0.1
2014-Sep-26 13:32N 33°41' W 118°07'0 0.0
2014-Sep-26 11:26N 33°41' W 118°07'0 0.1
2014-Sep-26 10:32N 33°41' W 118°07'0 0.1
2014-Sep-26 09:32N 33°41' W 118°07'0 0.1
2014-Sep-26 08:32N 33°41' W 118°07'0 0.0
2014-Sep-26 06:23N 33°41' W 118°07'0 0.1
2014-Sep-26 05:32N 33°41' W 118°07'0 0.0
2014-Sep-26 04:32N 33°41' W 118°07'0 0.1
2014-Sep-26 03:32N 33°41' W 118°07'0 0.0
2014-Sep-26 02:14N 33°41' W 118°07'0 0.0
2014-Sep-26 01:32N 33°41' W 118°07'0 0.0
2014-Sep-26 00:32N 33°41' W 118°07'0 0.0
2014-Sep-25 23:17N 33°41' W 118°07'0 0.0
2014-Sep-25 22:23N 33°41' W 118°07'0 0.0
2014-Sep-25 21:32N 33°41' W 118°07'0 0.0
2014-Sep-25 20:32N 33°41' W 118°07'0 0.0
2014-Sep-25 19:32N 33°41' W 118°07'0 0.0
2014-Sep-25 18:29N 33°41' W 118°07'0 0.0
2014-Sep-25 16:32N 33°41' W 118°07'0 0.1
2014-Sep-25 15:32N 33°41' W 118°07'0 0.1
2014-Sep-25 14:32N 33°41' W 118°07'0 0.0
2014-Sep-25 13:32N 33°41' W 118°07'0 0.1
2014-Sep-25 12:32N 33°41' W 118°07'0 0.0
2014-Sep-25 11:32N 33°41' W 118°07'0 0.0
2014-Sep-25 10:32N 33°41' W 118°07'0 0.1
2014-Sep-25 09:32N 33°41' W 118°07'0 0.1
2014-Sep-25 08:32N 33°41' W 118°07'0 0.0
2014-Sep-25 07:32N 33°41' W 118°07'0 0.0
2014-Sep-25 06:32N 33°41' W 118°07'0 0.1
2014-Sep-25 05:08N 33°41' W 118°07'0 0.1
2014-Sep-25 04:26N 33°41' W 118°07'0 0.1
2014-Sep-25 03:23N 33°41' W 118°07'0 0.0
2014-Sep-25 02:08N 33°41' W 118°07'0 0.0
2014-Sep-25 01:32N 33°41' W 118°07'0 0.0
2014-Sep-25 00:29N 33°41' W 118°07'0 0.0
2014-Sep-24 23:32N 33°41' W 118°07'0 0.0
2014-Sep-24 22:32N 33°41' W 118°07'2 1.9
2014-Sep-24 21:33N 33°39' W 118°08'10 9.9
2014-Sep-24 20:33N 33°35' W 118°18'1111.5
2014-Sep-24 19:33N 33°40' W 118°31'1111.4
2014-Sep-24 18:33N 33°46' W 118°43'2211.2
2014-Sep-24 16:33N 33°57' W 119°06'1111.4
2014-Sep-24 15:33N 34°03' W 119°18'1211.2
2014-Sep-24 14:31N 34°06' W 119°32'1111.2
2014-Sep-24 13:33N 34°09' W 119°44'1211.9
2014-Sep-24 12:33N 34°12' W 119°58'1211.8
2014-Sep-24 11:33N 34°15' W 120°12'1611.9
2014-Sep-24 10:14N 34°19' W 120°30'77 4.0
2014-Sep-23 15:07N 34°58' W 121°52'1019.0
2014-Sep-23 14:34N 35°03' W 122°02'1713.2
2014-Sep-23 13:16N 35°13' W 122°19'912.7
2014-Sep-23 12:33N 35°18' W 122°28'1212.0
2014-Sep-23 11:33N 35°25' W 122°41'1211.7
2014-Sep-23 10:33N 35°32' W 122°52'1211.8
2014-Sep-23 09:33N 35°38' W 123°05'1212.2
2014-Sep-23 08:33N 35°44' W 123°18'1212.1
2014-Sep-23 07:33N 35°50' W 123°30'1212.3
2014-Sep-23 06:33N 35°57' W 123°43'1512.6
2014-Sep-23 05:20N 36°05' W 123°60'  

Dump ship's entire track history